Airfield :







YOU CAN JOIN US ON...

 
LOGIN :

Register | Disclaimer

   EN    FR    IT 

 









Legend :    VFR   Marginal VFR   IFR   Intensive IFR   Very Intensive IFR
Visi :
Ceiling :
>= 8 km
>= 3000ft
5 to 8 km
1000 to 3000 ft
1500m to 5 km
500 to 1000 ft
800 to 1500m
200 to 500 ft
< 800m
< 200 ft
Symbols :   Thunderstorms  Fog  Heavy snow  Heavy precipitations  Wind > 20 kt






- Airport Elevation : 160 ft
- IATA code : YYR


CYYR - Goose Bay

CURRENT METAR :
  • 202000Z 34020G27KT 12SM -SHRA BKN026 OVC045 04/01 A2990 RMK SC7SC1 SLP127

EXPIRED METARs :
  • 201900Z 35007G21KT 15SM -SHRA BKN025 BKN033 OVC056 05/01 A2987 RMK SC6SC1SC1 SLP119
  • 201800Z 34014G20KT 15SM FEW025 BKN032 BKN058 BKN068 BKN080 05/02 A2983 RMK SC2SC2SC1AC1AC1 VIS LWR SE SLP106

TAF TAF CYYR
Valid from the 20 at 18:00 until the 21 at 18:00 UTC


201730Z 2018/2118 35015G30KT P6SM SCT025 BKN040
TEMPO 2018/2022 P6SM -SHRA BKN020 OVC030
FM202200 34010G20KT P6SM BKN025
BECMG 2102/2104 33010KT RMK NXT FCST BY 210000Z



MET'MAP, your aeronautical weather chart ! - Copyright ORBIFLY December 2007 - Disclaimer

ORBIFLY MET'MAP TEAM :

Programming & Development : Alexandra Zaïnal
Concept & Development : Baudouin d'Aumeries
Co-Development & Prog : Marc-Olivier Méhu
Technical & hardware support : Manuel Goepfert

Contact : metmap@orbifly.com




SOURCES & CREDITS :

   NOAA